Time;durP1;ratioP1;P1;durP2;ratioP2;P2;SDS_P1;SDS_P2;PMS_P1;PMS_P2;Temp;Humidity;BMP_temperature;BMP_pressure;BME280_temperature;BME280_humidity;BME280_pressure;Samples;Min_cycle;Max_cycle;Signal;HPM_P1;HPM_P2
2021/07/12 00:02:13;;;;;;;;;5.00;5.00;;;;;-147.17;100.00;59696.56;5014691;28;51181;-52
2021/07/12 00:04:38;;;;;;;;;6.00;6.00;;;;;-147.17;100.00;59696.56;5013445;28;51094;-47
2021/07/12 00:07:04;;;;;;;;;9.00;9.00;;;;;-147.17;100.00;59696.56;5013883;28;51012;-50
2021/07/12 00:09:29;;;;;;;;;9.33;7.67;;;;;-147.17;100.00;59696.56;5014202;28;51101;-50
2021/07/12 00:11:54;;;;;;;;;10.67;10.00;;;;;-147.17;100.00;59696.56;5006937;28;52223;-50
2021/07/12 00:14:19;;;;;;;;;9.67;9.33;;;;;-147.17;100.00;59696.56;5014820;28;51039;-51
2021/07/12 00:16:45;;;;;;;;;11.67;11.67;;;;;-147.17;100.00;59696.56;5014008;28;51145;-47
2021/07/12 00:19:10;;;;;;;;;6.00;6.00;;;;;-147.17;100.00;59696.56;5014217;28;51112;-50
2021/07/12 00:21:36;;;;;;;;;7.00;7.00;;;;;-147.17;100.00;59696.56;5014568;28;52362;-52
2021/07/12 00:24:01;;;;;;;;;8.00;8.00;;;;;-147.17;100.00;59696.56;5014643;28;50869;-50
2021/07/12 00:26:26;;;;;;;;;8.00;7.33;;;;;-147.17;100.00;59696.56;5013931;28;51116;-49
2021/07/12 00:28:52;;;;;;;;;6.00;6.00;;;;;-147.17;100.00;59696.56;5013794;28;51287;-47
2021/07/12 00:31:18;;;;;;;;;7.00;7.00;;;;;-147.17;100.00;59696.56;5011658;28;50898;-49
2021/07/12 00:33:43;;;;;;;;;6.00;6.00;;;;;-147.17;100.00;59696.56;4994964;28;50938;-49
2021/07/12 00:36:09;;;;;;;;;6.67;6.33;;;;;-147.17;100.00;59696.56;4994588;28;51011;-51
2021/07/12 00:38:36;;;;;;;;;6.00;6.00;;;;;-147.17;100.00;59696.56;5006399;28;51129;-47
2021/07/12 00:41:02;;;;;;;;;7.67;7.00;;;;;-147.17;100.00;59696.56;5013201;28;52317;-48
2021/07/12 00:43:28;;;;;;;;;6.00;6.00;;;;;-147.17;100.00;59696.56;5014696;28;51013;-50
2021/07/12 00:45:54;;;;;;;;;4.00;4.00;;;;;-147.17;100.00;59696.56;5014369;28;51279;-51
2021/07/12 00:48:19;;;;;;;;;7.00;7.00;;;;;-147.17;100.00;59696.56;5013911;28;51091;-51
2021/07/12 00:50:46;;;;;;;;;5.00;4.00;;;;;-147.17;100.00;59696.56;5010816;28;51117;-52
2021/07/12 00:53:12;;;;;;;;;6.00;5.00;;;;;-147.17;100.00;59696.56;5014387;28;51042;-50
2021/07/12 00:55:46;;;;;;;;;7.67;5.67;;;;;-147.17;100.00;59696.56;5013845;28;51055;-52
2021/07/12 00:58:21;;;;;;;;;5.67;5.67;;;;;-147.17;100.00;59696.56;5013781;28;50990;-47
2021/07/12 01:00:49;;;;;;;;;9.67;8.33;;;;;-147.17;100.00;59696.56;5013656;28;51682;-49
2021/07/12 01:03:16;;;;;;;;;6.00;6.00;;;;;-147.17;100.00;59696.56;5014157;28;51042;-48
2021/07/12 01:05:42;;;;;;;;;6.33;6.00;;;;;-147.17;100.00;59696.56;5013939;28;51149;-48
2021/07/12 01:08:08;;;;;;;;;7.00;6.67;;;;;-147.17;100.00;59696.56;5012335;28;51234;-49
2021/07/12 01:10:34;;;;;;;;;4.00;4.00;;;;;-147.17;100.00;59696.56;5013042;28;51905;-47
2021/07/12 01:13:21;;;;;;;;;5.00;5.00;;;;;-147.17;100.00;59696.56;5013514;28;51140;-48
2021/07/12 01:16:10;;;;;;;;;6.00;5.00;;;;;-147.17;100.00;59696.56;5005897;28;51128;-48
2021/07/12 01:18:48;;;;;;;;;5.33;5.00;;;;;-147.17;100.00;59696.56;5013364;28;51135;-48
2021/07/12 01:21:13;;;;;;;;;5.33;5.33;;;;;-147.17;100.00;59696.56;5013025;28;51175;-50
2021/07/12 01:23:57;;;;;;;;;5.00;5.00;;;;;-147.17;100.00;59696.56;5013121;28;51026;-51
2021/07/12 01:26:44;;;;;;;;;5.00;5.00;;;;;-147.17;100.00;59696.56;5013901;28;51162;-49
2021/07/12 01:29:40;;;;;;;;;5.00;5.00;;;;;-147.17;100.00;59696.56;5013788;28;51376;-50
2021/07/12 01:32:44;;;;;;;;;4.67;4.67;;;;;-147.17;100.00;59696.56;5011620;28;52137;-50
2021/07/12 01:35:28;;;;;;;;;5.33;4.67;;;;;-147.17;100.00;59696.56;4977854;28;51320;-50
2021/07/12 01:38:14;;;;;;;;;5.00;5.00;;;;;-147.17;100.00;59696.56;5013353;28;51115;-48
2021/07/12 01:40:59;;;;;;;;;6.00;5.33;;;;;-147.17;100.00;59696.56;5001236;28;51006;-49
2021/07/12 01:43:59;;;;;;;;;5.00;5.00;;;;;-147.17;100.00;59696.56;5012093;28;51881;-48
2021/07/12 01:46:44;;;;;;;;;5.67;4.67;;;;;-147.17;100.00;59696.56;5005740;28;51053;-50
2021/07/12 01:49:17;;;;;;;;;5.00;5.00;;;;;-147.17;100.00;59696.56;5012214;28;51140;-47
2021/07/12 01:52:02;;;;;;;;;6.33;5.00;;;;;-147.17;100.00;59696.56;5013438;28;51151;-47
2021/07/12 01:54:33;;;;;;;;;5.00;4.33;;;;;-147.17;100.00;59696.56;5012210;28;51960;-48
2021/07/12 01:57:03;;;;;;;;;4.67;4.67;;;;;-147.17;100.00;59696.56;5012630;28;51140;-48
2021/07/12 01:59:54;;;;;;;;;3.67;3.00;;;;;-147.17;100.00;59696.56;5011988;28;51328;-49
2021/07/12 02:02:23;;;;;;;;;3.00;3.00;;;;;-147.17;100.00;59696.56;5011769;28;51187;-49
2021/07/12 02:04:50;;;;;;;;;4.00;4.00;;;;;-147.17;100.00;59696.56;5012130;28;52380;-49
2021/07/12 02:07:17;;;;;;;;;6.00;6.00;;;;;-147.17;100.00;59696.56;5011437;28;51466;-51
2021/07/12 02:09:46;;;;;;;;;5.33;5.33;;;;;-147.17;100.00;59696.56;5012928;28;51175;-49
2021/07/12 02:12:12;;;;;;;;;4.00;4.00;;;;;-147.17;100.00;59696.56;5011120;28;51382;-47
2021/07/12 02:14:38;;;;;;;;;4.00;4.00;;;;;-147.17;100.00;59696.56;5012217;28;51056;-51
2021/07/12 02:17:07;;;;;;;;;5.00;5.00;;;;;-147.17;100.00;59696.56;5012665;28;50982;-51
2021/07/12 02:19:34;;;;;;;;;5.00;5.00;;;;;-147.17;100.00;59696.56;5000449;28;51092;-51
2021/07/12 02:22:01;;;;;;;;;5.00;5.00;;;;;-147.17;100.00;59696.56;5012525;28;51353;-47
2021/07/12 02:24:28;;;;;;;;;3.00;3.00;;;;;-147.17;100.00;59696.56;5011415;28;50850;-48
2021/07/12 02:26:55;;;;;;;;;5.00;4.67;;;;;-147.17;100.00;59696.56;5010784;28;51109;-47
2021/07/12 02:29:21;;;;;;;;;5.33;5.33;;;;;-147.17;100.00;59696.56;5011742;28;51182;-47
2021/07/12 02:31:51;;;;;;;;;5.00;5.00;;;;;-147.17;100.00;59696.56;5012781;28;51207;-47
2021/07/12 02:34:17;;;;;;;;;5.00;4.00;;;;;-147.17;100.00;59696.56;5010475;28;51214;-48
2021/07/12 02:36:45;;;;;;;;;4.00;4.00;;;;;-147.17;100.00;59696.56;5012176;28;51028;-49
2021/07/12 02:39:12;;;;;;;;;5.00;4.00;;;;;-147.17;100.00;59696.56;5011852;28;51182;-49
2021/07/12 02:41:38;;;;;;;;;5.00;5.00;;;;;-147.17;100.00;59696.56;5012486;28;51159;-50
2021/07/12 02:44:07;;;;;;;;;3.33;3.33;;;;;-147.17;100.00;59696.56;5011638;28;51898;-50
2021/07/12 02:46:32;;;;;;;;;5.00;4.00;;;;;-147.17;100.00;59696.56;5010542;28;51056;-48
2021/07/12 02:48:58;;;;;;;;;4.67;4.00;;;;;-147.17;100.00;59696.56;5012077;28;51079;-48
2021/07/12 02:51:45;;;;;;;;;5.00;5.00;;;;;-147.17;100.00;59696.56;5012842;28;51036;-49
2021/07/12 02:54:16;;;;;;;;;5.33;4.33;;;;;-147.17;100.00;59696.56;5009620;28;53930;-52
2021/07/12 02:56:42;;;;;;;;;4.33;4.00;;;;;-147.17;100.00;59696.56;5012068;28;51194;-49
2021/07/12 02:59:07;;;;;;;;;4.00;4.00;;;;;-147.17;100.00;59696.56;5011619;28;51191;-50
2021/07/12 03:01:33;;;;;;;;;5.33;5.00;;;;;-147.17;100.00;59696.56;5012324;28;51151;-47
2021/07/12 03:03:58;;;;;;;;;6.00;5.33;;;;;-147.17;100.00;59696.56;5011277;28;52223;-49
2021/07/12 03:06:46;;;;;;;;;4.67;4.67;;;;;-147.17;100.00;59696.56;5012125;28;51113;-50
2021/07/12 03:09:13;;;;;;;;;2.00;2.00;;;;;-147.17;100.00;59696.56;5010997;28;51234;-49
2021/07/12 03:11:45;;;;;;;;;4.00;4.00;;;;;-147.17;100.00;59696.56;5011120;28;51068;-53
2021/07/12 03:14:20;;;;;;;;;4.00;4.00;;;;;-147.17;100.00;59696.56;5010745;28;50978;-51
2021/07/12 03:16:49;;;;;;;;;4.67;4.67;;;;;-147.17;100.00;59696.56;5011841;28;50950;-50
2021/07/12 03:19:21;;;;;;;;;5.00;5.00;;;;;-147.17;100.00;59696.56;5011192;28;51036;-50
2021/07/12 03:21:48;;;;;;;;;3.67;3.67;;;;;-147.17;100.00;59696.56;5011075;28;51189;-48
2021/07/12 03:24:16;;;;;;;;;4.67;4.67;;;;;-147.17;100.00;59696.56;5011795;28;52155;-49
2021/07/12 03:26:44;;;;;;;;;4.00;4.00;;;;;-147.17;100.00;59696.56;5012083;28;51060;-52
2021/07/12 03:29:13;;;;;;;;;4.67;3.67;;;;;-147.17;100.00;59696.56;4997277;28;51053;-51
2021/07/12 03:31:38;;;;;;;;;4.00;3.67;;;;;-147.17;100.00;59696.56;5011495;28;51108;-50
2021/07/12 03:34:05;;;;;;;;;3.33;3.33;;;;;-147.17;100.00;59696.56;5010553;28;52068;-52
2021/07/12 03:36:31;;;;;;;;;3.67;3.67;;;;;-147.17;100.00;59696.56;5011852;28;51055;-49
2021/07/12 03:38:57;;;;;;;;;3.33;3.33;;;;;-147.17;100.00;59696.56;5005178;28;50964;-51
2021/07/12 03:41:23;;;;;;;;;5.67;5.67;;;;;-147.17;100.00;59696.56;5010832;28;51261;-51
2021/07/12 03:43:48;;;;;;;;;5.67;5.33;;;;;-147.17;100.00;59696.56;5007798;28;51041;-51
2021/07/12 03:46:13;;;;;;;;;5.67;5.00;;;;;-147.17;100.00;59696.56;5011155;28;51015;-51
2021/07/12 03:48:40;;;;;;;;;4.67;4.67;;;;;-147.17;100.00;59696.56;5011976;28;50929;-49
2021/07/12 03:51:08;;;;;;;;;5.00;5.00;;;;;-147.17;100.00;59696.56;5010494;28;51309;-50
2021/07/12 03:53:34;;;;;;;;;4.00;4.00;;;;;-147.17;100.00;59696.56;5010988;28;51192;-51
2021/07/12 03:56:00;;;;;;;;;6.00;6.00;;;;;-147.17;100.00;59696.56;5010454;28;50957;-51
2021/07/12 03:58:26;;;;;;;;;5.67;5.00;;;;;-147.17;100.00;59696.56;5011694;28;51118;-51
2021/07/12 04:00:51;;;;;;;;;5.33;4.00;;;;;-147.17;100.00;59696.56;5011608;28;50965;-50
2021/07/12 04:03:17;;;;;;;;;4.00;4.00;;;;;-147.17;100.00;59696.56;5010558;28;51262;-51
2021/07/12 04:05:42;;;;;;;;;4.67;4.67;;;;;-147.17;100.00;59696.56;5010613;28;50913;-50
2021/07/12 04:08:07;;;;;;;;;5.33;5.00;;;;;-147.17;100.00;59696.56;5011448;28;50898;-48
2021/07/12 04:10:33;;;;;;;;;4.67;4.67;;;;;-147.17;100.00;59696.56;5011243;28;51239;-47
2021/07/12 04:12:58;;;;;;;;;3.33;3.33;;;;;-147.17;100.00;59696.56;5007312;28;51223;-47
2021/07/12 04:15:23;;;;;;;;;5.67;4.67;;;;;-147.17;100.00;59696.56;5010251;28;51122;-51
2021/07/12 04:17:49;;;;;;;;;5.00;5.00;;;;;-147.17;100.00;59696.56;5011130;28;51028;-49
2021/07/12 04:20:15;;;;;;;;;3.33;3.33;;;;;-147.17;100.00;59696.56;5011391;28;51450;-47
2021/07/12 04:22:41;;;;;;;;;4.00;3.67;;;;;-147.17;100.00;59696.56;5010271;28;52226;-48
2021/07/12 04:25:08;;;;;;;;;2.67;2.67;;;;;-147.17;100.00;59696.56;5013046;28;51172;-51
2021/07/12 04:27:34;;;;;;;;;5.00;5.00;;;;;-147.17;100.00;59696.56;5013242;28;51116;-52
2021/07/12 04:29:59;;;;;;;;;4.67;4.67;;;;;-147.17;100.00;59696.56;5014663;28;51027;-52
2021/07/12 04:32:24;;;;;;;;;3.67;3.67;;;;;-147.17;100.00;59696.56;5013216;28;52181;-52
2021/07/12 04:34:50;;;;;;;;;4.33;4.00;;;;;-147.17;100.00;59696.56;5014682;28;51130;-51
2021/07/12 04:37:15;;;;;;;;;5.00;5.00;;;;;-147.17;100.00;59696.56;5013657;28;51099;-50
2021/07/12 04:39:40;;;;;;;;;4.00;4.00;;;;;-147.17;100.00;59696.56;5012979;28;51182;-51
2021/07/12 04:42:06;;;;;;;;;5.67;5.67;;;;;-147.17;100.00;59696.56;5002520;28;51870;-53
2021/07/12 04:44:31;;;;;;;;;5.67;5.67;;;;;-147.17;100.00;59696.56;5014684;28;51054;-51
2021/07/12 04:46:59;;;;;;;;;5.33;5.33;;;;;-147.17;100.00;59696.56;5014228;28;50961;-52
2021/07/12 04:49:24;;;;;;;;;5.00;5.00;;;;;-147.17;100.00;59696.56;5013887;28;51000;-52
2021/07/12 04:51:50;;;;;;;;;5.00;5.00;;;;;-147.17;100.00;59696.56;5011657;28;51941;-50
2021/07/12 04:54:15;;;;;;;;;5.00;4.33;;;;;-147.17;100.00;59696.56;5013624;28;51081;-50
2021/07/12 04:56:41;;;;;;;;;6.00;6.00;;;;;-147.17;100.00;59696.56;5012942;28;50991;-50
2021/07/12 04:59:07;;;;;;;;;6.00;6.00;;;;;-147.17;100.00;59696.56;5013774;28;51392;-48
2021/07/12 05:01:34;;;;;;;;;6.00;6.00;;;;;-147.17;100.00;59696.56;5013286;28;52309;-48
2021/07/12 05:04:04;;;;;;;;;6.00;6.00;;;;;-147.17;100.00;59696.56;5014399;28;50947;-50
2021/07/12 05:06:29;;;;;;;;;6.67;6.00;;;;;-147.17;100.00;59696.56;5007299;28;51118;-50
2021/07/12 05:08:56;;;;;;;;;5.00;5.00;;;;;-147.17;100.00;59696.56;5007767;28;50876;-48
2021/07/12 05:11:22;;;;;;;;;5.00;5.00;;;;;-147.17;100.00;59696.56;5013691;28;52027;-48
2021/07/12 05:13:48;;;;;;;;;5.67;5.33;;;;;-147.17;100.00;59696.56;5014046;28;50890;-47
2021/07/12 05:16:14;;;;;;;;;5.33;5.33;;;;;-147.17;100.00;59696.56;5012243;28;51290;-51
2021/07/12 05:18:39;;;;;;;;;5.67;4.00;;;;;-147.17;100.00;59696.56;5014115;28;50926;-51
2021/07/12 05:21:05;;;;;;;;;6.00;5.67;;;;;-147.17;100.00;59696.56;5013653;28;51099;-50
2021/07/12 05:23:31;;;;;;;;;5.33;5.33;;;;;-147.17;100.00;59696.56;5012498;28;51060;-51
2021/07/12 05:25:56;;;;;;;;;5.33;5.00;;;;;-147.17;100.00;59696.56;5012799;28;51246;-50
2021/07/12 05:28:22;;;;;;;;;6.00;6.00;;;;;-147.17;100.00;59696.56;5013988;28;51124;-51
2021/07/12 05:30:47;;;;;;;;;8.33;7.67;;;;;-147.17;100.00;59696.56;5011888;28;52392;-50
2021/07/12 05:33:13;;;;;;;;;8.00;7.33;;;;;-147.17;100.00;59696.56;5013617;28;50847;-52
2021/07/12 05:35:38;;;;;;;;;6.33;5.67;;;;;-147.17;100.00;59696.56;5012701;28;50906;-52
2021/07/12 05:38:04;;;;;;;;;7.00;6.33;;;;;-147.17;100.00;59696.56;5013436;28;51057;-51
2021/07/12 05:40:30;;;;;;;;;5.00;5.00;;;;;-147.17;100.00;59696.56;4994100;28;52604;-48
2021/07/12 05:42:55;;;;;;;;;6.00;6.00;;;;;-147.17;100.00;59696.56;4992518;28;50956;-50
2021/07/12 05:45:21;;;;;;;;;6.67;6.67;;;;;-147.17;100.00;59696.56;4993548;28;51129;-49
2021/07/12 05:47:46;;;;;;;;;7.67;7.33;;;;;-147.17;100.00;59696.56;4992160;28;51399;-52
2021/07/12 05:50:14;;;;;;;;;6.00;6.00;;;;;-147.17;100.00;59696.56;5009958;28;51893;-50
2021/07/12 05:52:39;;;;;;;;;7.67;7.67;;;;;-147.17;100.00;59696.56;5001494;28;51073;-49
2021/07/12 05:55:06;;;;;;;;;7.00;7.00;;;;;-147.17;100.00;59696.56;4992934;28;51137;-52
2021/07/12 05:57:31;;;;;;;;;7.00;7.00;;;;;-147.17;100.00;59696.56;4993756;28;51339;-49
2021/07/12 05:59:56;;;;;;;;;9.00;7.33;;;;;-147.17;100.00;59696.56;4992713;28;51960;-50
2021/07/12 06:02:22;;;;;;;;;8.00;8.00;;;;;-147.17;100.00;59696.56;4993252;28;51052;-50
2021/07/12 06:04:47;;;;;;;;;6.33;6.33;;;;;-147.17;100.00;59696.56;5004697;28;53731;-48
2021/07/12 06:07:12;;;;;;;;;6.67;6.00;;;;;-147.17;100.00;59696.56;5013378;28;51216;-48
2021/07/12 06:09:39;;;;;;;;;7.33;7.33;;;;;-147.17;100.00;59696.56;5012687;28;52291;-47
2021/07/12 06:12:04;;;;;;;;;7.67;7.33;;;;;-147.17;100.00;59696.56;5012759;28;51251;-47
2021/07/12 06:14:30;;;;;;;;;8.00;8.00;;;;;-147.17;100.00;59696.56;5011051;28;51219;-47
2021/07/12 06:16:55;;;;;;;;;5.67;5.67;;;;;-147.17;100.00;59696.56;5012743;28;50922;-47
2021/07/12 06:19:21;;;;;;;;;8.00;7.33;;;;;-147.17;100.00;59696.56;4992139;28;52856;-48
2021/07/12 06:21:46;;;;;;;;;8.33;8.00;;;;;-147.17;100.00;59696.56;5004992;28;51068;-50
2021/07/12 06:24:12;;;;;;;;;7.67;7.67;;;;;-147.17;100.00;59696.56;5012625;28;51442;-47
2021/07/12 06:26:37;;;;;;;;;8.00;8.00;;;;;-147.17;100.00;59696.56;5012891;28;51077;-50
2021/07/12 06:29:03;;;;;;;;;10.00;9.00;;;;;-147.17;100.00;59696.56;5012246;28;52036;-50
2021/07/12 06:31:29;;;;;;;;;11.33;11.00;;;;;-147.17;100.00;59696.56;5012596;28;51101;-50
2021/07/12 06:33:54;;;;;;;;;6.67;6.00;;;;;-147.17;100.00;59696.56;5011062;28;51348;-49
2021/07/12 06:36:19;;;;;;;;;9.67;9.33;;;;;-147.17;100.00;59696.56;5012781;28;51212;-49
2021/07/12 06:38:45;;;;;;;;;7.00;7.00;;;;;-147.17;100.00;59696.56;5006948;28;52340;-53
2021/07/12 06:41:10;;;;;;;;;9.00;8.00;;;;;-147.17;100.00;59696.56;4992239;28;50970;-50
2021/07/12 06:43:35;;;;;;;;;8.33;8.00;;;;;-147.17;100.00;59696.56;4992449;28;51147;-49
2021/07/12 06:46:01;;;;;;;;;9.00;9.00;;;;;-147.17;100.00;59696.56;4992495;28;50962;-51
2021/07/12 06:48:27;;;;;;;;;7.67;7.00;;;;;-147.17;100.00;59696.56;4992333;28;52005;-51
2021/07/12 06:50:54;;;;;;;;;8.67;8.67;;;;;-147.17;100.00;59696.56;4992604;28;51016;-52
2021/07/12 06:53:19;;;;;;;;;7.33;7.33;;;;;-147.17;100.00;59696.56;4992221;28;51046;-51
2021/07/12 06:55:44;;;;;;;;;13.00;11.00;;;;;-147.17;100.00;59696.56;4990524;28;51011;-50
2021/07/12 06:58:12;;;;;;;;;12.67;11.67;;;;;-147.17;100.00;59696.56;4991384;28;50975;-51
2021/07/12 07:00:41;;;;;;;;;9.00;9.00;;;;;-147.17;100.00;59696.56;4991587;28;51017;-52
2021/07/12 07:03:08;;;;;;;;;18.67;17.00;;;;;-147.17;100.00;59696.56;5001470;28;51053;-49
2021/07/12 07:05:33;;;;;;;;;10.00;9.00;;;;;-147.17;100.00;59696.56;5012014;28;51168;-51
2021/07/12 07:07:59;;;;;;;;;11.33;11.33;;;;;-147.17;100.00;59696.56;5011272;28;53193;-50
2021/07/12 07:10:25;;;;;;;;;8.67;8.67;;;;;-147.17;100.00;59696.56;5011461;28;51036;-51
2021/07/12 07:12:50;;;;;;;;;8.67;8.33;;;;;-147.17;100.00;59696.56;5012101;28;51171;-51
2021/07/12 07:15:15;;;;;;;;;10.00;9.00;;;;;-147.17;100.00;59696.56;5012360;28;50893;-49
2021/07/12 07:17:41;;;;;;;;;8.00;7.00;;;;;-147.17;100.00;59696.56;5011272;28;51836;-50
2021/07/12 07:20:07;;;;;;;;;8.00;8.00;;;;;-147.17;100.00;59696.56;5012090;28;51032;-49
2021/07/12 07:22:32;;;;;;;;;9.33;9.00;;;;;-147.17;100.00;59696.56;5011785;28;51164;-52
2021/07/12 07:24:58;;;;;;;;;9.00;9.00;;;;;-147.17;100.00;59696.56;5011586;28;51098;-47
2021/07/12 07:27:24;;;;;;;;;10.33;9.00;;;;;-147.17;100.00;59696.56;5011330;28;51794;-52
2021/07/12 07:29:49;;;;;;;;;8.67;8.67;;;;;-147.17;100.00;59696.56;5011734;28;51080;-52
2021/07/12 07:32:15;;;;;;;;;10.00;9.33;;;;;-147.17;100.00;59696.56;5011520;28;51368;-48
2021/07/12 07:34:41;;;;;;;;;9.00;9.00;;;;;-147.17;100.00;59696.56;5012228;28;50998;-51
2021/07/12 07:37:07;;;;;;;;;9.00;9.00;;;;;-147.17;100.00;59696.56;5010982;28;52123;-47
2021/07/12 07:39:32;;;;;;;;;9.67;8.67;;;;;-147.17;100.00;59696.56;5000397;28;50889;-51
2021/07/12 07:41:58;;;;;;;;;12.33;12.33;;;;;-147.17;100.00;59696.56;4991298;28;50971;-50
2021/07/12 07:44:24;;;;;;;;;11.33;11.00;;;;;-147.17;100.00;59696.56;4991685;28;51348;-50
2021/07/12 07:46:50;;;;;;;;;16.33;15.33;;;;;-147.17;100.00;59696.56;4991281;28;52498;-51
2021/07/12 07:49:15;;;;;;;;;9.67;9.67;;;;;-147.17;100.00;59696.56;4990247;28;50896;-51
2021/07/12 07:51:41;;;;;;;;;12.00;12.00;;;;;-147.17;100.00;59696.56;4991572;28;50975;-52
2021/07/12 07:54:07;;;;;;;;;13.33;13.33;;;;;-147.17;100.00;59696.56;4992172;28;51320;-51
2021/07/12 07:56:34;;;;;;;;;10.33;10.00;;;;;-147.17;100.00;59696.56;4990812;28;51847;-52
2021/07/12 07:58:59;;;;;;;;;13.67;13.33;;;;;-147.17;100.00;59696.56;4993472;28;50985;-52
2021/07/12 08:01:25;;;;;;;;;13.00;12.67;;;;;-147.17;100.00;59696.56;5002057;28;51002;-51
2021/07/12 08:03:50;;;;;;;;;10.00;9.00;;;;;-147.17;100.00;59696.56;5015016;28;51113;-52
2021/07/12 08:06:17;;;;;;;;;11.33;10.67;;;;;-147.17;100.00;59696.56;5014213;28;51487;-49
2021/07/12 08:08:43;;;;;;;;;10.33;10.33;;;;;-147.17;100.00;59696.56;5014833;28;50950;-48
2021/07/12 08:11:09;;;;;;;;;14.33;12.67;;;;;-147.17;100.00;59696.56;5014095;28;50920;-49
2021/07/12 08:13:34;;;;;;;;;11.33;11.33;;;;;-147.17;100.00;59696.56;5014804;28;50941;-48
2021/07/12 08:15:59;;;;;;;;;13.25;12.25;;;;;-147.17;100.00;59696.56;5013292;28;55895;-50
2021/07/12 08:18:25;;;;;;;;;9.67;9.67;;;;;-147.17;100.00;59696.56;5014689;28;50981;-51
2021/07/12 08:20:50;;;;;;;;;12.33;11.33;;;;;-147.17;100.00;59696.56;5014672;28;50902;-52
2021/07/12 08:23:16;;;;;;;;;11.00;10.67;;;;;-147.17;100.00;59696.56;5015109;28;50857;-48
2021/07/12 08:25:42;;;;;;;;;11.67;11.67;;;;;-147.17;100.00;59696.56;5013899;28;52019;-48
2021/07/12 08:28:07;;;;;;;;;13.33;12.67;;;;;-147.17;100.00;59696.56;5013471;28;51127;-47
2021/07/12 08:30:33;;;;;;;;;12.67;12.00;;;;;-147.17;100.00;59696.56;5014253;28;50970;-49
2021/07/12 08:32:58;;;;;;;;;9.67;9.00;;;;;-147.17;100.00;59696.56;5014203;28;50928;-50
2021/07/12 08:35:24;;;;;;;;;10.00;10.00;;;;;-147.17;100.00;59696.56;5014065;28;51636;-52
2021/07/12 08:37:50;;;;;;;;;11.33;11.33;;;;;-147.17;100.00;59696.56;5014008;28;50998;-52
2021/07/12 08:40:18;;;;;;;;;10.67;10.67;;;;;-147.17;100.00;59696.56;4996216;28;50954;-51
2021/07/12 08:42:44;;;;;;;;;11.67;11.00;;;;;-147.17;100.00;59696.56;4994638;28;51332;-51
2021/07/12 08:45:10;;;;;;;;;11.00;11.00;;;;;-147.17;100.00;59696.56;4993781;28;51692;-49
2021/07/12 08:47:37;;;;;;;;;13.67;12.00;;;;;-147.17;100.00;59696.56;4994444;28;50939;-51
2021/07/12 08:50:04;;;;;;;;;14.00;13.33;;;;;-147.17;100.00;59696.56;4994266;28;51103;-49
2021/07/12 08:52:30;;;;;;;;;12.00;11.00;;;;;-147.17;100.00;59696.56;4994501;28;51405;-48
2021/07/12 08:54:55;;;;;;;;;12.00;12.00;;;;;-147.17;100.00;59696.56;4993377;28;51076;-52
2021/07/12 08:57:21;;;;;;;;;12.33;12.33;;;;;-147.17;100.00;59696.56;4993792;28;51074;-48
2021/07/12 08:59:46;;;;;;;;;14.67;13.67;;;;;-147.17;100.00;59696.56;4999639;28;51153;-49
2021/07/12 09:02:14;;;;;;;;;16.67;13.00;;;;;-147.17;100.00;59696.56;5014197;28;50883;-48
2021/07/12 09:04:45;;;;;;;;;13.00;13.00;;;;;-147.17;100.00;59696.56;5013384;28;52199;-49
2021/07/12 09:07:13;;;;;;;;;13.00;13.00;;;;;-147.17;100.00;59696.56;5013933;28;51144;-48
2021/07/12 09:09:39;;;;;;;;;14.00;13.00;;;;;-147.17;100.00;59696.56;5012560;28;50901;-50
2021/07/12 09:12:08;;;;;;;;;14.33;13.00;;;;;-147.17;100.00;59696.56;5013305;28;50939;-48
2021/07/12 09:14:39;;;;;;;;;13.33;12.67;;;;;-147.17;100.00;59696.56;5013558;28;52276;-51
2021/07/12 09:17:04;;;;;;;;;12.00;12.00;;;;;-147.17;100.00;59696.56;5013226;28;51032;-51
2021/07/12 09:19:33;;;;;;;;;12.67;12.33;;;;;-147.17;100.00;59696.56;5013548;28;50958;-51
2021/07/12 09:22:06;;;;;;;;;10.00;10.00;;;;;-147.17;100.00;59696.56;5013587;28;51341;-52
2021/07/12 09:24:55;;;;;;;;;12.67;12.67;;;;;-147.17;100.00;59696.56;5013124;28;51125;-50
2021/07/12 09:27:26;;;;;;;;;16.00;16.00;;;;;-147.17;100.00;59696.56;5013236;28;51213;-49
2021/07/12 09:29:55;;;;;;;;;15.00;14.00;;;;;-147.17;100.00;59696.56;5013089;28;50998;-48
2021/07/12 09:32:23;;;;;;;;;12.75;11.75;;;;;-147.17;100.00;59696.56;5013384;28;51018;-50
2021/07/12 09:34:50;;;;;;;;;14.33;14.33;;;;;-147.17;100.00;59696.56;5012781;28;51975;-50
2021/07/12 09:37:19;;;;;;;;;11.33;11.00;;;;;-147.17;100.00;59696.56;5012421;28;51074;-50
2021/07/12 09:39:45;;;;;;;;;13.33;13.33;;;;;-147.17;100.00;59696.56;4999673;28;50991;-51
2021/07/12 09:42:19;;;;;;;;;10.00;9.67;;;;;-147.17;100.00;59696.56;4993410;28;51002;-53
2021/07/12 09:44:51;;;;;;;;;13.00;12.00;;;;;-147.17;100.00;59696.56;4993211;28;51163;-52
2021/07/12 09:47:20;;;;;;;;;12.00;12.00;;;;;-147.17;100.00;59696.56;4993320;28;51005;-51
2021/07/12 09:49:47;;;;;;;;;10.00;10.00;;;;;-147.17;100.00;59696.56;4993411;28;51302;-52
2021/07/12 09:52:21;;;;;;;;;11.67;11.00;;;;;-147.17;100.00;59696.56;4993575;28;50881;-50
2021/07/12 09:54:48;;;;;;;;;11.33;10.67;;;;;-147.17;100.00;59696.56;4992327;28;51079;-49
2021/07/12 09:57:19;;;;;;;;;12.67;11.00;;;;;-147.17;100.00;59696.56;4993240;28;50997;-49
2021/07/12 10:00:07;;;;;;;;;8.33;8.00;;;;;-147.17;100.00;59696.56;5010106;28;51160;-50
2021/07/12 10:02:35;;;;;;;;;11.00;10.33;;;;;-147.17;100.00;59696.56;5008605;28;51263;-49
2021/07/12 10:05:06;;;;;;;;;10.00;10.00;;;;;-147.17;100.00;59696.56;5012533;28;51829;-49
2021/07/12 10:07:32;;;;;;;;;10.00;10.00;;;;;-147.17;100.00;59696.56;5012348;28;51336;-51
2021/07/12 10:10:00;;;;;;;;;8.00;8.00;;;;;-147.17;100.00;59696.56;5012200;28;51152;-47
2021/07/12 10:12:26;;;;;;;;;7.00;6.33;;;;;-147.17;100.00;59696.56;5012489;28;51386;-47
2021/07/12 10:14:51;;;;;;;;;9.00;8.33;;;;;-147.17;100.00;59696.56;4999449;28;53752;-50
2021/07/12 10:17:18;;;;;;;;;9.00;8.00;;;;;-147.17;100.00;59696.56;5002885;28;51375;-50
2021/07/12 10:19:45;;;;;;;;;8.67;8.00;;;;;-147.17;100.00;59696.56;5004425;28;51168;-49
2021/07/12 10:22:12;;;;;;;;;10.00;9.67;;;;;-147.17;100.00;59696.56;5006435;28;51227;-48
2021/07/12 10:24:44;;;;;;;;;11.67;10.67;;;;;-147.17;100.00;59696.56;4992460;28;51006;-49
2021/07/12 10:27:27;;;;;;;;;11.33;10.00;;;;;-147.17;100.00;59696.56;4992264;28;51061;-48
2021/07/12 10:30:17;;;;;;;;;12.00;10.33;;;;;-147.17;100.00;59696.56;4991934;28;51330;-49
2021/07/12 10:32:51;;;;;;;;;13.33;13.00;;;;;-147.17;100.00;59696.56;4997010;28;51013;-47
2021/07/12 10:35:35;;;;;;;;;13.00;11.67;;;;;-147.17;100.00;59696.56;5011474;28;52017;-49
2021/07/12 10:38:00;;;;;;;;;14.00;13.33;;;;;-147.17;100.00;59696.56;5007971;28;51111;-49
2021/07/12 10:40:49;;;;;;;;;12.00;12.00;;;;;-147.17;100.00;59696.56;4998626;28;51300;-47
2021/07/12 10:43:42;;;;;;;;;14.00;14.00;;;;;-147.17;100.00;59696.56;5011692;28;50897;-52
2021/07/12 10:46:28;;;;;;;;;14.00;13.33;;;;;-147.17;100.00;59696.56;5011231;28;51948;-47
2021/07/12 10:49:05;;;;;;;;;14.33;14.00;;;;;-147.17;100.00;59696.56;5011759;28;51221;-49
2021/07/12 10:51:41;;;;;;;;;13.00;13.00;;;;;-147.17;100.00;59696.56;5011524;28;51244;-51
2021/07/12 10:54:12;;;;;;;;;15.00;14.00;;;;;-147.17;100.00;59696.56;4999349;28;51165;-48
2021/07/12 10:56:53;;;;;;;;;14.67;13.67;;;;;-147.17;100.00;59696.56;5010676;28;51717;-48
2021/07/12 10:59:31;;;;;;;;;10.67;10.33;;;;;-147.17;100.00;59696.56;5011541;28;51055;-46
2021/07/12 11:01:59;;;;;;;;;12.00;12.00;;;;;-147.17;100.00;59696.56;5010210;28;51133;-49
2021/07/12 11:04:31;;;;;;;;;11.00;11.00;;;;;-147.17;100.00;59696.56;5004641;28;51175;-48
2021/07/12 11:06:57;;;;;;;;;13.00;11.67;;;;;-147.17;100.00;59696.56;5004734;28;51617;-49
2021/07/12 11:09:44;;;;;;;;;14.33;14.00;;;;;-147.17;100.00;59696.56;5004287;28;51100;-49
2021/07/12 11:12:40;;;;;;;;;10.67;10.67;;;;;-147.17;100.00;59696.56;5011531;28;50902;-49